Time;durP1;ratioP1;P1;durP2;ratioP2;P2;SDS_P1;SDS_P2;PMS_P1;PMS_P2;Temp;Humidity;BMP_temperature;BMP_pressure;BME280_temperature;BME280_humidity;BME280_pressure;Samples;Min_cycle;Max_cycle;Signal;HPM_P1;HPM_P2
2022/08/15 00:01:47;;;;;;;10.70;10.40;;;21.90;99.90;;;;;;5020329;28;20290;-79
2022/08/15 00:04:16;;;;;;;10.63;10.32;;;21.80;99.90;;;;;;5020297;28;20236;-79
2022/08/15 00:06:46;;;;;;;10.52;10.23;;;21.80;99.90;;;;;;5020056;28;20315;-79
2022/08/15 00:09:18;;;;;;;10.60;10.30;;;21.80;99.90;;;;;;5019571;28;20232;-79
2022/08/15 00:11:50;;;;;;;10.60;10.30;;;21.70;99.90;;;;;;5020524;28;20294;-79
2022/08/15 00:14:22;;;;;;;10.70;10.40;;;21.70;99.90;;;;;;5020135;28;20243;-80
2022/08/15 00:16:50;;;;;;;10.80;10.50;;;21.70;99.90;;;;;;5019395;28;20315;-78
2022/08/15 00:19:23;;;;;;;10.63;10.32;;;21.70;99.90;;;;;;5019296;28;20250;-78
2022/08/15 00:21:54;;;;;;;10.80;10.50;;;21.60;99.90;;;;;;5019325;28;20286;-78
2022/08/15 00:24:28;;;;;;;10.70;10.40;;;21.60;99.90;;;;;;5018660;28;20319;-78
2022/08/15 00:26:58;;;;;;;10.77;10.48;;;21.60;99.90;;;;;;5019022;28;20236;-77
2022/08/15 00:29:29;;;;;;;10.88;10.57;;;21.70;99.90;;;;;;5016727;28;20224;-78
2022/08/15 00:31:57;;;;;;;10.98;10.68;;;21.70;99.90;;;;;;5019878;28;20232;-78
2022/08/15 00:34:27;;;;;;;10.60;10.30;;;21.70;99.90;;;;;;5019209;28;20271;-78
2022/08/15 00:36:54;;;;;;;10.68;10.38;;;21.70;99.90;;;;;;5019788;28;20230;-79
2022/08/15 00:39:25;;;;;;;10.52;10.23;;;21.70;99.90;;;;;;5020064;28;20223;-79
2022/08/15 00:41:54;;;;;;;10.60;10.30;;;21.70;99.90;;;;;;5020087;28;20742;-78
2022/08/15 00:44:26;;;;;;;10.55;10.25;;;21.70;99.90;;;;;;5019232;28;20232;-77
2022/08/15 00:47:00;;;;;;;10.85;10.55;;;21.80;99.90;;;;;;5019714;28;20243;-78
2022/08/15 00:49:33;;;;;;;10.55;10.25;;;21.80;99.90;;;;;;5019659;28;20236;-78
2022/08/15 00:52:06;;;;;;;10.80;10.50;;;21.80;99.90;;;;;;5019852;28;20240;-78
2022/08/15 00:54:39;;;;;;;10.80;10.50;;;21.80;99.90;;;;;;5019516;28;20240;-78
2022/08/15 00:57:10;;;;;;;10.70;10.40;;;21.80;99.90;;;;;;5019742;28;20292;-78
2022/08/15 00:59:44;;;;;;;10.52;10.23;;;21.80;99.90;;;;;;5019624;28;20296;-78
2022/08/15 01:02:17;;;;;;;10.38;10.07;;;21.80;99.90;;;;;;5020421;28;20236;-79
2022/08/15 01:04:46;;;;;;;10.73;10.43;;;21.80;99.90;;;;;;5019528;28;20255;-79
2022/08/15 01:07:14;;;;;;;10.52;10.23;;;21.80;99.90;;;;;;5020111;28;20331;-79
2022/08/15 01:09:42;;;;;;;10.77;10.48;;;21.80;99.90;;;;;;5020239;28;20287;-79
2022/08/15 01:12:13;;;;;;;10.60;10.30;;;21.90;99.90;;;;;;5019236;28;20232;-78
2022/08/15 01:14:44;;;;;;;10.52;10.23;;;21.80;99.90;;;;;;5018688;28;20239;-77
2022/08/15 01:17:13;;;;;;;10.70;10.40;;;21.80;99.90;;;;;;5018338;28;20234;-78
2022/08/15 01:19:48;;;;;;;10.60;10.30;;;21.80;99.90;;;;;;5018951;28;20251;-78
2022/08/15 01:22:35;;;;;;;10.55;10.25;;;21.80;99.90;;;;;;5020196;28;20259;-78
2022/08/15 01:25:10;;;;;;;10.70;10.40;;;21.70;99.90;;;;;;5019260;28;20232;-78
2022/08/15 01:27:44;;;;;;;10.75;10.45;;;21.60;99.90;;;;;;5018672;28;20239;-78
2022/08/15 01:30:17;;;;;;;10.48;10.18;;;21.60;99.90;;;;;;5018833;28;20248;-78
2022/08/15 01:32:46;;;;;;;10.27;9.98;;;21.50;99.90;;;;;;5021218;28;20240;-78
2022/08/15 01:35:15;;;;;;;10.50;10.20;;;21.50;99.90;;;;;;5018896;28;20291;-78
2022/08/15 01:37:43;;;;;;;10.60;10.30;;;21.40;99.90;;;;;;5021012;28;20232;-78
2022/08/15 01:40:28;;;;;;;10.50;10.20;;;21.40;99.90;;;;;;5022437;28;20242;-79
2022/08/15 01:42:57;;;;;;;10.32;10.02;;;21.30;99.90;;;;;;5031002;28;20327;-79
2022/08/15 01:45:29;;;;;;;10.50;10.20;;;21.40;99.90;;;;;;5029248;28;20232;-79
2022/08/15 01:48:05;;;;;;;10.27;9.98;;;21.40;99.90;;;;;;5030777;28;20242;-79
2022/08/15 01:50:35;;;;;;;10.20;9.90;;;21.40;99.90;;;;;;5030629;28;20231;-79
2022/08/15 01:53:10;;;;;;;10.52;10.23;;;21.40;99.90;;;;;;5030097;28;20347;-78
2022/08/15 01:55:47;;;;;;;10.70;10.40;;;21.30;99.90;;;;;;5030532;28;20243;-79
2022/08/15 01:58:14;;;;;;;10.75;10.45;;;21.30;99.90;;;;;;5030539;28;20284;-79
2022/08/15 02:00:54;;;;;;;10.73;10.43;;;21.30;99.90;;;;;;5026486;28;20224;-79
2022/08/15 02:03:33;;;;;;;10.73;10.43;;;21.20;99.90;;;;;;5031418;28;20291;-78
2022/08/15 02:06:01;;;;;;;10.55;10.25;;;21.20;99.90;;;;;;5025706;28;20256;-79
2022/08/15 02:08:29;;;;;;;10.43;10.13;;;21.20;99.90;;;;;;5022213;28;20327;-79
2022/08/15 02:10:58;;;;;;;10.50;10.20;;;21.20;99.90;;;;;;5022178;28;20235;-79
2022/08/15 02:13:26;;;;;;;10.40;10.10;;;21.20;99.90;;;;;;5022417;28;20239;-79
2022/08/15 02:15:54;;;;;;;10.43;10.13;;;21.20;99.90;;;;;;5022884;28;20274;-79
2022/08/15 02:18:22;;;;;;;10.20;9.90;;;21.10;99.90;;;;;;5022434;28;20242;-79
2022/08/15 02:20:50;;;;;;;10.32;10.02;;;21.10;99.90;;;;;;5022751;28;20236;-79
2022/08/15 02:23:17;;;;;;;10.18;9.88;;;21.10;99.90;;;;;;5021750;28;20247;-79
2022/08/15 02:25:45;;;;;;;10.30;10.00;;;21.00;99.90;;;;;;5021575;28;20242;-79
2022/08/15 02:28:14;;;;;;;10.52;10.23;;;21.00;99.90;;;;;;5022324;28;20240;-79
2022/08/15 02:30:42;;;;;;;10.68;10.38;;;21.00;99.90;;;;;;5021714;28;20324;-79
2022/08/15 02:33:10;;;;;;;10.48;10.18;;;20.90;99.90;;;;;;5021622;28;20240;-79
2022/08/15 02:35:38;;;;;;;10.23;9.93;;;20.90;99.90;;;;;;5020841;28;20327;-78
2022/08/15 02:38:06;;;;;;;10.27;9.98;;;20.90;99.90;;;;;;5023980;28;20236;-78
2022/08/15 02:40:35;;;;;;;10.27;9.98;;;20.80;99.90;;;;;;5024664;28;20240;-78
2022/08/15 02:43:05;;;;;;;10.30;10.00;;;20.80;99.90;;;;;;5025402;28;20303;-78
2022/08/15 02:45:37;;;;;;;10.43;10.13;;;20.80;99.90;;;;;;5021070;28;20232;-77
2022/08/15 02:48:06;;;;;;;10.40;10.10;;;20.80;99.90;;;;;;5021463;28;20232;-78
2022/08/15 02:50:36;;;;;;;10.20;9.90;;;20.90;99.90;;;;;;5021217;28;20301;-78
2022/08/15 02:53:11;;;;;;;10.43;10.13;;;20.90;99.90;;;;;;5019727;28;20240;-79
2022/08/15 02:55:39;;;;;;;10.13;9.82;;;20.90;99.90;;;;;;5021280;28;20247;-79
2022/08/15 02:58:06;;;;;;;10.25;9.95;;;20.90;99.90;;;;;;5020773;28;20229;-78
2022/08/15 03:00:35;;;;;;;10.40;10.10;;;20.90;99.90;;;;;;5021379;28;20927;-79
2022/08/15 03:03:06;;;;;;;10.40;10.10;;;20.90;99.90;;;;;;5021837;28;20232;-79
2022/08/15 03:05:36;;;;;;;10.25;9.95;;;20.90;99.90;;;;;;5020765;28;20232;-79
2022/08/15 03:08:05;;;;;;;10.10;9.80;;;20.90;99.90;;;;;;5021456;28;20232;-79
2022/08/15 03:10:33;;;;;;;10.23;9.93;;;20.80;99.90;;;;;;5021124;28;20287;-79
2022/08/15 03:13:04;;;;;;;10.20;9.90;;;20.70;99.90;;;;;;5021314;28;20231;-79
2022/08/15 03:15:42;;;;;;;10.05;9.75;;;20.70;99.90;;;;;;5020604;28;20248;-79
2022/08/15 03:18:10;;;;;;;10.00;9.70;;;20.60;99.90;;;;;;5022036;28;20296;-78
2022/08/15 03:20:38;;;;;;;10.50;10.20;;;20.60;99.90;;;;;;5021942;28;20331;-78
2022/08/15 03:23:08;;;;;;;10.18;9.88;;;20.40;99.90;;;;;;5022377;28;20236;-79
2022/08/15 03:25:41;;;;;;;10.10;9.80;;;20.40;99.90;;;;;;5021513;28;20236;-78
2022/08/15 03:28:09;;;;;;;10.25;9.95;;;20.40;99.90;;;;;;5021537;28;20319;-78
2022/08/15 03:30:39;;;;;;;10.40;10.10;;;20.40;99.90;;;;;;5021079;28;20236;-78
2022/08/15 03:33:07;;;;;;;10.43;10.13;;;20.40;99.90;;;;;;5021075;28;20235;-79
2022/08/15 03:35:42;;;;;;;10.32;10.02;;;20.40;99.90;;;;;;5020580;28;20232;-78
2022/08/15 03:38:10;;;;;;;10.60;10.30;;;20.40;99.90;;;;;;5021074;28;20335;-79
2022/08/15 03:40:40;;;;;;;10.30;10.00;;;20.30;99.90;;;;;;5020365;28;20372;-79
2022/08/15 03:43:11;;;;;;;10.57;10.27;;;20.30;99.90;;;;;;5020452;28;20238;-79
2022/08/15 03:45:41;;;;;;;10.30;10.00;;;20.30;99.90;;;;;;5019852;28;20232;-78
2022/08/15 03:48:10;;;;;;;10.25;9.95;;;20.30;99.90;;;;;;5020838;28;20324;-79
2022/08/15 03:50:37;;;;;;;10.35;10.05;;;20.30;99.90;;;;;;5020807;28;20240;-79
2022/08/15 03:53:07;;;;;;;10.67;10.37;;;20.30;99.90;;;;;;5020589;28;20237;-79
2022/08/15 03:55:38;;;;;;;10.57;10.27;;;20.40;99.90;;;;;;5019956;28;20236;-78
2022/08/15 03:58:06;;;;;;;10.70;10.40;;;20.30;99.90;;;;;;5020577;28;20220;-77
2022/08/15 04:00:37;;;;;;;10.70;10.40;;;20.30;99.90;;;;;;5020187;28;20247;-79
2022/08/15 04:03:10;;;;;;;10.70;10.40;;;20.20;99.90;;;;;;5019967;28;20235;-78
2022/08/15 04:05:38;;;;;;;10.65;10.35;;;20.10;99.90;;;;;;5019610;28;20228;-79
2022/08/15 04:08:07;;;;;;;10.40;10.10;;;20.10;99.90;;;;;;5020602;28;20232;-78
2022/08/15 04:10:36;;;;;;;10.60;10.30;;;20.10;99.90;;;;;;5020590;28;20251;-78
2022/08/15 04:13:06;;;;;;;10.50;10.20;;;20.10;99.90;;;;;;5020653;28;20240;-79
2022/08/15 04:15:35;;;;;;;10.48;10.18;;;20.10;99.90;;;;;;5020237;28;20247;-79
2022/08/15 04:18:03;;;;;;;10.70;10.40;;;20.10;99.90;;;;;;5019941;28;20262;-79
2022/08/15 04:20:32;;;;;;;10.55;10.25;;;20.20;99.90;;;;;;5023076;28;20287;-78
2022/08/15 04:23:01;;;;;;;10.90;10.60;;;20.20;99.90;;;;;;5021246;28;20237;-78
2022/08/15 04:25:32;;;;;;;10.70;10.40;;;20.30;99.90;;;;;;5019829;28;20759;-77
2022/08/15 04:28:03;;;;;;;11.00;10.70;;;20.30;99.90;;;;;;5020489;28;20262;-79
2022/08/15 04:30:35;;;;;;;10.70;10.40;;;20.30;99.90;;;;;;5020434;28;20236;-78
2022/08/15 04:33:11;;;;;;;10.52;10.23;;;20.20;99.90;;;;;;5019834;28;20283;-77
2022/08/15 04:35:44;;;;;;;10.45;10.15;;;20.20;99.90;;;;;;5019605;28;20239;-79
2022/08/15 04:38:12;;;;;;;10.60;10.30;;;20.20;99.90;;;;;;5019998;28;20238;-78
2022/08/15 04:40:40;;;;;;;10.70;10.40;;;20.30;99.90;;;;;;5043224;22;20232;-82
2022/08/15 04:43:09;;;;;;;10.52;10.23;;;20.20;99.90;;;;;;5024626;28;20255;-83
2022/08/15 04:45:38;;;;;;;10.55;10.25;;;20.20;99.90;;;;;;5023370;28;20291;-83
2022/08/15 04:48:06;;;;;;;10.65;10.35;;;20.30;99.90;;;;;;5024823;28;20252;-83
2022/08/15 04:50:53;;;;;;;10.70;10.40;;;20.30;99.90;;;;;;5023646;28;20232;-84
2022/08/15 04:53:30;;;;;;;10.98;10.68;;;20.30;99.90;;;;;;5023358;28;20260;-83
2022/08/15 04:55:59;;;;;;;10.68;10.38;;;20.30;99.90;;;;;;5024214;28;20290;-84
2022/08/15 04:58:29;;;;;;;10.73;10.43;;;20.40;99.90;;;;;;5033797;28;20228;-84
2022/08/15 05:00:59;;;;;;;11.10;10.80;;;20.50;99.90;;;;;;5028987;28;20236;-84
2022/08/15 05:03:27;;;;;;;10.80;10.50;;;20.50;99.90;;;;;;5028447;28;20240;-82
2022/08/15 05:05:58;;;;;;;10.80;10.50;;;20.60;99.90;;;;;;5026249;28;20228;-83
2022/08/15 05:08:36;;;;;;;10.80;10.50;;;20.70;99.90;;;;;;5026251;28;20295;-84
2022/08/15 05:11:14;;;;;;;10.75;10.45;;;20.80;99.90;;;;;;5025813;28;20284;-84
2022/08/15 05:13:43;;;;;;;10.75;10.45;;;20.90;99.90;;;;;;5025365;28;20775;-83
2022/08/15 05:16:13;;;;;;;10.73;10.43;;;20.90;99.90;;;;;;5023421;28;20251;-83
2022/08/15 05:18:43;;;;;;;10.90;10.60;;;21.00;99.90;;;;;;5023989;28;20234;-83
2022/08/15 05:21:12;;;;;;;10.85;10.55;;;21.00;99.90;;;;;;5024338;28;20259;-84
2022/08/15 05:23:44;;;;;;;10.80;10.50;;;21.10;99.90;;;;;;5023686;28;20319;-84
2022/08/15 05:26:13;;;;;;;10.45;10.15;;;21.10;99.90;;;;;;5023473;28;20232;-84
2022/08/15 05:28:41;;;;;;;10.50;10.20;;;21.20;99.90;;;;;;5023868;28;20221;-83
2022/08/15 05:31:12;;;;;;;10.68;10.38;;;21.20;99.90;;;;;;5028248;28;20335;-83
2022/08/15 05:33:48;;;;;;;10.68;10.38;;;21.30;99.90;;;;;;5024844;28;20236;-84
2022/08/15 05:36:18;;;;;;;10.60;10.30;;;21.30;99.90;;;;;;5024294;28;20233;-84
2022/08/15 05:38:56;;;;;;;10.60;10.30;;;21.40;99.90;;;;;;5025345;28;20666;-84
2022/08/15 05:41:35;;;;;;;10.52;10.23;;;21.40;99.90;;;;;;5024059;28;20732;-83
2022/08/15 05:44:12;;;;;;;10.98;10.68;;;21.50;99.90;;;;;;5024056;28;20315;-84
2022/08/15 05:46:51;;;;;;;10.80;10.50;;;21.50;99.90;;;;;;5024050;28;20296;-84
2022/08/15 05:49:29;;;;;;;11.00;10.70;;;21.60;99.90;;;;;;5024300;28;20232;-84
2022/08/15 05:52:15;;;;;;;11.02;10.73;;;21.60;99.90;;;;;;5023208;28;20259;-83
2022/08/15 05:55:05;;;;;;;10.80;10.50;;;21.60;99.90;;;;;;5023659;28;20251;-84
2022/08/15 05:57:49;;;;;;;10.77;10.48;;;21.70;99.90;;;;;;5025138;28;20232;-84
2022/08/15 06:00:19;;;;;;;10.90;10.60;;;21.80;99.90;;;;;;5025062;28;20243;-83
2022/08/15 06:02:50;;;;;;;10.60;10.30;;;21.80;99.90;;;;;;5024738;28;20251;-83
2022/08/15 06:05:28;;;;;;;10.90;10.60;;;21.90;99.90;;;;;;5024231;28;20238;-84
2022/08/15 06:07:58;;;;;;;10.70;10.40;;;21.90;99.90;;;;;;5026582;28;20224;-83
2022/08/15 06:10:36;;;;;;;10.73;10.43;;;22.00;99.90;;;;;;5030074;28;20263;-85
2022/08/15 06:13:14;;;;;;;10.55;10.25;;;22.00;99.90;;;;;;5028808;28;20216;-83
2022/08/15 06:15:52;;;;;;;10.75;10.45;;;22.00;99.90;;;;;;5028365;28;20248;-83
2022/08/15 06:18:22;;;;;;;10.57;10.27;;;22.00;99.90;;;;;;5027721;28;20232;-85
2022/08/15 06:21:00;;;;;;;10.90;10.60;;;22.10;99.90;;;;;;5027641;28;20244;-84
2022/08/15 06:23:41;;;;;;;10.68;10.38;;;22.10;99.90;;;;;;5030339;28;20219;-84
2022/08/15 06:26:27;;;;;;;10.70;10.40;;;22.20;99.90;;;;;;5027980;28;20232;-84
2022/08/15 06:29:30;;;;;;;10.60;10.30;;;22.30;99.90;;;;;;5029594;28;20239;-83
2022/08/15 06:32:09;;;;;;;10.90;10.60;;;22.30;99.90;;;;;;5029735;28;20293;-84
2022/08/15 06:34:48;;;;;;;10.80;10.50;;;22.40;99.90;;;;;;5029950;28;20232;-83
2022/08/15 06:37:33;;;;;;;10.80;10.50;;;22.40;99.90;;;;;;5030196;28;20230;-83
2022/08/15 06:40:12;;;;;;;10.88;10.57;;;22.50;99.90;;;;;;5030754;28;20260;-83
2022/08/15 06:42:51;;;;;;;10.95;10.65;;;22.50;99.90;;;;;;5031412;28;20334;-84
2022/08/15 06:48:09;;;;;;;11.23;10.90;;;22.40;99.90;;;;;;5030741;28;20246;-83
2022/08/15 06:50:46;;;;;;;10.98;10.68;;;22.40;99.90;;;;;;5028166;28;20240;-84
2022/08/15 06:53:24;;;;;;;10.93;10.63;;;22.40;99.90;;;;;;5027388;28;20421;-84
2022/08/15 06:56:01;;;;;;;11.00;10.70;;;22.30;99.90;;;;;;5025816;28;20267;-84
2022/08/15 06:58:42;;;;;;;10.90;10.60;;;22.40;99.90;;;;;;5027175;28;20336;-84
2022/08/15 07:01:27;;;;;;;10.93;10.63;;;22.30;99.90;;;;;;5026572;28;20232;-84
2022/08/15 07:04:13;;;;;;;10.80;10.50;;;22.30;99.90;;;;;;5026540;28;20220;-84
2022/08/15 07:06:51;;;;;;;10.70;10.40;;;22.30;99.90;;;;;;5027210;28;20204;-84
2022/08/15 07:09:39;;;;;;;10.80;10.50;;;22.30;99.90;;;;;;5029381;28;20228;-85
2022/08/15 07:12:26;;;;;;;10.75;10.45;;;22.30;99.90;;;;;;5030237;28;20296;-84
2022/08/15 07:15:05;;;;;;;10.75;10.45;;;22.40;99.90;;;;;;5033300;28;20254;-82
2022/08/15 07:17:45;;;;;;;10.80;10.50;;;22.30;99.90;;;;;;5041258;28;20215;-82
2022/08/15 07:20:13;;;;;;;10.77;10.48;;;22.30;99.90;;;;;;5041295;28;20227;-81
2022/08/15 07:22:41;;;;;;;11.02;10.73;;;22.30;99.90;;;;;;5040084;28;20248;-83
2022/08/15 07:25:12;;;;;;;10.90;10.60;;;22.40;99.90;;;;;;5030333;28;20243;-83
2022/08/15 07:27:40;;;;;;;10.75;10.45;;;22.40;99.90;;;;;;5029301;28;20323;-83
2022/08/15 07:30:18;;;;;;;10.50;10.20;;;22.50;99.90;;;;;;5028705;28;20303;-82
2022/08/15 07:32:57;;;;;;;10.70;10.40;;;22.60;99.90;;;;;;5033365;28;20232;-82
2022/08/15 07:35:28;;;;;;;10.75;10.45;;;22.60;99.90;;;;;;5037217;28;20726;-83
2022/08/15 07:40:44;;;;;;;10.82;10.52;;;22.90;99.90;;;;;;5028348;28;20263;-82
2022/08/15 07:43:31;;;;;;;10.98;10.68;;;23.00;99.90;;;;;;5029304;28;20223;-84
2022/08/15 07:46:16;;;;;;;10.90;10.60;;;23.20;99.90;;;;;;5027588;28;20228;-82
2022/08/15 07:48:46;;;;;;;11.02;10.73;;;23.30;99.90;;;;;;5027544;28;20298;-83
2022/08/15 07:51:25;;;;;;;10.63;10.32;;;23.30;99.90;;;;;;5026422;28;20299;-83
2022/08/15 07:53:57;;;;;;;10.60;10.30;;;23.40;99.90;;;;;;5027045;28;20243;-84
2022/08/15 07:56:25;;;;;;;10.50;10.20;;;23.50;99.90;;;;;;5025176;28;20286;-82
2022/08/15 07:59:10;;;;;;;10.60;10.30;;;23.70;99.90;;;;;;5026685;28;20259;-83
2022/08/15 08:01:48;;;;;;;10.43;10.13;;;23.90;99.90;;;;;;5027066;28;20252;-83
2022/08/15 08:04:27;;;;;;;11.25;10.95;;;24.10;99.90;;;;;;5027134;28;20223;-83
2022/08/15 08:09:47;;;;;;;11.35;11.05;;;24.40;99.90;;;;;;5026907;28;20217;-84
2022/08/15 08:12:31;;;;;;;10.93;10.63;;;24.60;99.90;;;;;;5025623;28;20243;-82
2022/08/15 08:15:20;;;;;;;10.80;10.50;;;24.70;99.90;;;;;;5025497;28;20291;-83
2022/08/15 08:18:05;;;;;;;10.80;10.50;;;24.60;99.90;;;;;;5025522;28;20284;-84
2022/08/15 08:20:45;;;;;;;10.68;10.38;;;24.60;99.90;;;;;;5025278;28;20236;-82
2022/08/15 08:23:22;;;;;;;10.90;10.60;;;24.70;99.90;;;;;;5025522;28;20242;-82
2022/08/15 08:28:57;;;;;;;11.05;10.75;;;24.80;99.90;;;;;;5027880;28;20319;-81
2022/08/15 08:31:34;;;;;;;11.10;10.80;;;24.90;99.90;;;;;;5029552;28;20220;-82
2022/08/15 08:34:16;;;;;;;11.25;10.95;;;25.00;99.90;;;;;;5027747;28;20232;-82
2022/08/15 08:37:02;;;;;;;11.10;10.80;;;25.00;99.90;;;;;;5026092;28;20236;-82
2022/08/15 08:39:41;;;;;;;11.15;10.85;;;25.10;99.90;;;;;;5026490;28;20223;-82
2022/08/15 08:42:26;;;;;;;11.20;10.90;;;25.30;99.90;;;;;;5026705;28;20236;-83
2022/08/15 08:45:13;;;;;;;11.40;11.00;;;25.50;99.90;;;;;;5031510;28;20228;-83
2022/08/15 08:48:16;;;;;;;11.38;11.07;;;25.80;99.90;;;;;;5030576;28;20243;-83
2022/08/15 08:51:04;;;;;;;11.27;10.98;;;26.00;99.90;;;;;;5029782;28;20251;-83
2022/08/15 08:53:42;;;;;;;11.10;10.80;;;26.20;99.90;;;;;;5030617;28;20247;-81
2022/08/15 08:59:08;;;;;;;11.20;10.90;;;26.40;99.90;;;;;;5028172;28;20339;-82
2022/08/15 09:01:37;;;;;;;11.65;11.25;;;26.40;99.90;;;;;;5027859;28;20335;-83
2022/08/15 09:04:15;;;;;;;11.20;10.90;;;26.20;99.90;;;;;;5028202;28;20220;-84
2022/08/15 09:06:55;;;;;;;10.98;10.68;;;26.10;99.90;;;;;;5027121;28;20236;-84
2022/08/15 09:09:34;;;;;;;11.50;11.10;;;26.00;99.90;;;;;;5029381;28;20232;-82
2022/08/15 09:14:58;;;;;;;11.38;11.02;;;26.00;99.90;;;;;;5027758;28;20649;-83
2022/08/15 09:17:28;;;;;;;11.68;11.27;;;26.00;99.90;;;;;;5031178;28;20239;-83
2022/08/15 09:20:05;;;;;;;11.55;11.15;;;26.00;99.90;;;;;;5033956;28;20255;-83
2022/08/15 09:22:36;;;;;;;11.40;11.07;;;26.10;99.90;;;;;;5036396;28;20247;-83
2022/08/15 09:25:06;;;;;;;11.60;11.20;;;26.10;99.90;;;;;;5035403;28;20232;-85
2022/08/15 09:27:50;;;;;;;11.68;11.27;;;26.10;99.90;;;;;;5036190;28;20232;-83
2022/08/15 09:30:20;;;;;;;11.15;10.85;;;26.40;99.90;;;;;;5031406;28;20228;-84
2022/08/15 09:33:07;;;;;;;11.02;10.73;;;26.60;99.90;;;;;;5031347;28;20255;-84
2022/08/15 09:35:53;;;;;;;10.93;10.63;;;26.60;99.90;;;;;;5028155;28;20231;-83
2022/08/15 09:38:40;;;;;;;11.05;10.75;;;26.40;99.90;;;;;;5029043;28;20260;-83
2022/08/15 09:41:39;;;;;;;11.60;11.20;;;26.50;99.90;;;;;;5026889;28;20271;-83
2022/08/15 09:44:32;;;;;;;11.50;11.10;;;26.60;99.90;;;;;;5027855;28;20339;-84
2022/08/15 09:47:28;;;;;;;11.30;11.00;;;26.80;99.90;;;;;;5028148;28;20239;-83
2022/08/15 09:50:41;;;;;;;11.38;11.07;;;26.90;99.90;;;;;;5027180;28;20253;-83
2022/08/15 09:53:30;;;;;;;11.20;10.90;;;26.80;99.90;;;;;;5009900;28;20294;-83
2022/08/15 09:56:07;;;;;;;11.38;11.07;;;26.80;99.90;;;;;;5026796;28;20393;-82
2022/08/15 09:58:45;;;;;;;11.15;10.85;;;26.90;99.90;;;;;;5026762;28;20223;-84
2022/08/15 10:01:23;;;;;;;10.98;10.68;;;26.80;99.90;;;;;;5028022;28;20294;-83
2022/08/15 10:04:02;;;;;;;10.90;10.60;;;26.60;99.90;;;;;;5029742;28;20243;-83
2022/08/15 10:06:33;;;;;;;11.00;10.70;;;26.80;99.90;;;;;;5028409;28;20238;-84
2022/08/15 10:09:36;;;;;;;11.10;10.80;;;27.10;99.90;;;;;;5028796;28;20314;-83
2022/08/15 10:15:32;;;;;;;10.80;10.50;;;27.50;99.90;;;;;;5031344;28;20285;-84
2022/08/15 10:18:00;;;;;;;10.88;10.57;;;27.60;99.90;;;;;;5030154;28;20224;-81
2022/08/15 10:21:04;;;;;;;10.85;10.55;;;27.80;99.90;;;;;;5035036;28;20303;-84
2022/08/15 10:23:44;;;;;;;11.00;10.70;;;27.90;99.90;;;;;;5038978;28;20259;-82
2022/08/15 10:26:28;;;;;;;11.20;10.90;;;27.80;99.90;;;;;;5038452;28;20239;-82
2022/08/15 10:31:55;;;;;;;11.05;10.75;;;27.70;99.90;;;;;;5039379;28;20221;-82
2022/08/15 10:34:41;;;;;;;11.18;10.88;;;27.80;99.90;;;;;;5038613;28;20263;-82
2022/08/15 10:37:29;;;;;;;11.00;10.70;;;27.90;99.90;;;;;;5038971;28;20244;-82
2022/08/15 10:40:34;;;;;;;11.27;10.98;;;27.90;99.90;;;;;;5039123;28;20235;-83
2022/08/15 10:43:43;;;;;;;11.40;11.10;;;28.00;99.90;;;;;;5049592;22;20267;-78
2022/08/15 10:46:24;;;;;;;11.70;11.30;;;28.30;99.90;;;;;;5021422;28;20232;-80
2022/08/15 10:49:13;;;;;;;11.32;11.02;;;28.60;99.90;;;;;;5023831;28;20316;-79
2022/08/15 10:52:13;;;;;;;11.00;10.70;;;28.70;99.90;;;;;;5023202;28;20322;-81
2022/08/15 10:55:02;;;;;;;11.13;10.82;;;28.60;99.90;;;;;;5023554;28;20247;-80
2022/08/15 10:57:48;;;;;;;11.48;11.10;;;28.50;99.90;;;;;;5024417;28;20228;-81
2022/08/15 11:00:37;;;;;;;11.10;10.80;;;28.70;99.90;;;;;;5023692;28;20264;-82
2022/08/15 11:03:18;;;;;;;11.40;11.10;;;28.90;99.90;;;;;;5024130;28;20248;-80
2022/08/15 11:06:04;;;;;;;11.60;11.20;;;28.90;99.90;;;;;;5024628;28;20232;-79
2022/08/15 11:08:34;;;;;;;11.18;10.88;;;29.20;99.90;;;;;;5029089;28;20228;-81
2022/08/15 11:11:07;;;;;;;11.18;10.88;;;29.40;99.90;;;;;;5039333;28;20235;-81
2022/08/15 11:13:39;;;;;;;11.18;10.88;;;29.60;99.90;;;;;;5037750;28;20236;-81
2022/08/15 11:16:17;;;;;;;11.35;11.05;;;29.70;99.90;;;;;;5035380;28;20235;-79
2022/08/15 11:18:55;;;;;;;11.40;11.10;;;30.20;99.90;;;;;;5030144;28;20235;-79
2022/08/15 11:21:33;;;;;;;11.30;11.00;;;30.60;99.90;;;;;;5028303;28;20239;-79
2022/08/15 11:24:06;;;;;;;11.20;10.90;;;31.10;99.90;;;;;;5026732;28;20235;-79
2022/08/15 11:26:41;;;;;;;10.82;10.52;;;31.20;99.90;;;;;;5026162;28;20256;-80
2022/08/15 11:29:23;;;;;;;10.70;10.40;;;31.20;99.90;;;;;;5032385;28;20240;-80
2022/08/15 11:31:57;;;;;;;10.68;10.38;;;30.90;99.90;;;;;;5032199;28;20240;-79
2022/08/15 11:34:30;;;;;;;10.85;10.55;;;30.40;99.90;;;;;;5032755;28;20283;-80
2022/08/15 11:37:06;;;;;;;10.95;10.65;;;29.90;99.90;;;;;;5032290;28;20244;-79
2022/08/15 11:39:38;;;;;;;11.10;10.80;;;29.80;99.90;;;;;;5032810;28;20323;-79
2022/08/15 11:42:13;;;;;;;11.10;10.80;;;29.90;99.90;;;;;;5032962;28;20244;-81
2022/08/15 11:44:52;;;;;;;10.95;10.65;;;29.80;99.90;;;;;;5033016;28;20251;-79
2022/08/15 11:47:23;;;;;;;10.93;10.63;;;29.60;99.90;;;;;;5034663;28;20232;-79
2022/08/15 11:49:58;;;;;;;11.18;10.88;;;29.20;99.90;;;;;;5035866;28;20236;-78
2022/08/15 11:52:31;;;;;;;11.20;10.90;;;29.10;99.90;;;;;;5031708;28;20256;-79
2022/08/15 11:55:22;;;;;;;11.30;11.00;;;28.90;99.90;;;;;;5029801;28;20212;-79
2022/08/15 11:57:53;;;;;;;11.00;10.70;;;28.70;99.90;;;;;;5029739;28;20247;-79
2022/08/15 12:00:31;;;;;;;11.00;10.70;;;28.80;99.90;;;;;;5025968;28;21049;-79
2022/08/15 12:03:19;;;;;;;11.07;10.77;;;29.10;99.90;;;;;;5021534;28;20243;-80
2022/08/15 12:05:50;;;;;;;11.02;10.73;;;29.50;99.90;;;;;;5020670;28;20319;-79
2022/08/15 12:08:24;;;;;;;11.02;10.73;;;29.60;99.90;;;;;;5021098;28;20230;-79
2022/08/15 12:10:52;;;;;;;11.15;10.85;;;29.70;99.90;;;;;;5021147;28;20227;-79
2022/08/15 12:13:25;;;;;;;10.98;10.68;;;29.90;99.90;;;;;;5020796;28;20236;-79
2022/08/15 12:15:56;;;;;;;11.00;10.70;;;30.20;99.90;;;;;;5020255;28;20243;-80
2022/08/15 12:18:38;;;;;;;11.10;10.80;;;30.30;99.90;;;;;;5021610;28;20295;-79
2022/08/15 12:21:13;;;;;;;11.00;10.70;;;30.70;99.90;;;;;;5021497;28;20232;-80
2022/08/15 12:23:54;;;;;;;11.10;10.80;;;31.20;99.90;;;;;;5021908;28;20242;-80
2022/08/15 12:26:29;;;;;;;11.13;10.82;;;31.50;99.90;;;;;;5019980;28;20229;-80
2022/08/15 12:28:58;;;;;;;11.10;10.80;;;31.60;99.90;;;;;;5021543;28;20238;-80
2022/08/15 12:31:38;;;;;;;10.93;10.63;;;31.50;99.90;;;;;;5021553;28;20232;-80
2022/08/15 12:34:16;;;;;;;11.00;10.70;;;31.40;99.90;;;;;;5022018;28;20228;-80
2022/08/15 12:36:45;;;;;;;11.18;10.88;;;31.20;99.90;;;;;;5021690;28;20235;-80
2022/08/15 12:39:15;;;;;;;11.30;11.00;;;30.90;99.90;;;;;;5021521;28;20243;-80
2022/08/15 12:41:45;;;;;;;11.15;10.85;;;30.90;99.90;;;;;;5020394;28;20322;-80
2022/08/15 12:44:21;;;;;;;11.18;10.88;;;31.00;99.90;;;;;;5021355;28;20260;-79
2022/08/15 12:46:51;;;;;;;11.00;10.70;;;31.20;99.90;;;;;;5021666;28;20231;-79
2022/08/15 12:49:31;;;;;;;10.98;10.68;;;31.20;99.90;;;;;;5021348;28;20256;-80
2022/08/15 12:51:59;;;;;;;10.80;10.50;;;30.90;99.90;;;;;;5021523;28;20266;-80
2022/08/15 12:54:28;;;;;;;10.93;10.63;;;30.90;99.90;;;;;;5020808;28;20256;-81
2022/08/15 12:56:57;;;;;;;10.73;10.43;;;30.60;99.90;;;;;;5021352;28;20264;-79
2022/08/15 12:59:28;;;;;;;10.77;10.48;;;30.40;99.90;;;;;;5021157;28;20234;-80
2022/08/15 13:01:57;;;;;;;10.90;10.60;;;30.10;99.90;;;;;;5020924;28;20238;-79
2022/08/15 13:04:36;;;;;;;11.40;11.10;;;29.80;99.90;;;;;;5019841;28;20227;-80
2022/08/15 13:07:04;;;;;;;11.40;11.10;;;29.80;99.90;;;;;;5020316;28;20271;-80
2022/08/15 13:09:34;;;;;;;11.30;11.00;;;30.00;99.90;;;;;;5019785;28;20309;-80
2022/08/15 13:12:04;;;;;;;11.13;10.82;;;30.20;99.90;;;;;;5020346;28;20331;-80
2022/08/15 13:14:32;;;;;;;11.23;10.93;;;30.70;99.90;;;;;;5020206;28;20310;-80
2022/08/15 13:17:02;;;;;;;11.35;11.05;;;31.30;99.90;;;;;;5020163;28;20294;-80
2022/08/15 13:25:08;;;;;;;11.43;11.13;;;32.70;99.90;;;;;;5020664;28;20220;-81
2022/08/15 13:27:36;;;;;;;11.68;11.32;;;32.80;99.90;;;;;;5020731;28;20322;-80
2022/08/15 13:30:11;;;;;;;11.40;11.10;;;32.70;99.90;;;;;;5021019;28;20232;-81
2022/08/15 13:32:39;;;;;;;11.48;11.18;;;32.90;99.90;;;;;;5021169;28;20245;-81
2022/08/15 13:35:12;;;;;;;11.32;11.02;;;32.90;99.90;;;;;;5022323;28;20319;-81
2022/08/15 13:37:42;;;;;;;11.60;11.30;;;33.20;99.90;;;;;;5026264;28;20232;-79